Terminal Aerodrome Forecast
Issued by NWS Charleston, WV

Current Version | Previous Version | Graphics & Text | Print | Product List | Glossary On
Versions: 1 2 3 4 5 6 7 8 9 10 11 12 13 14 15 16 17 18 19 20 21 22 23 24 25
000
FTUS41 KRLX 280201 AAA
TAFBKW
TAF AMD
KBKW 280201Z 2802/2824 15003KT P6SM BKN060
      TEMPO 2804/2807 3SM TSRA SCT025 OVC045CB
     FM280700 24004KT 4SM SHRA OVC025
     FM280900 22003KT 5SM SHRA OVC012
     FM281200 26006KT P6SM OVC025
     FM282200 32009KT P6SM OVC030=

USA.gov is the U.S. government's official web portal to all federal, state and local government web resources and services.